Time;durP1;ratioP1;P1;durP2;ratioP2;P2;SDS_P1;SDS_P2;PMS_P1;PMS_P2;Temp;Humidity;BMP_temperature;BMP_pressure;BME280_temperature;BME280_humidity;BME280_pressure;Samples;Min_cycle;Max_cycle;Signal;HPM_P1;HPM_P2
2021/11/20 00:01:28;;;;;;;10.77;9.83;;;;;;;10.12;94.01;101813.16;5062342;28;20850;-77
2021/11/20 00:03:55;;;;;;;10.93;9.90;;;;;;;10.21;94.10;101814.06;5061902;28;20231;-78
2021/11/20 00:06:25;;;;;;;11.27;10.20;;;;;;;10.18;93.67;101819.28;5061617;28;20247;-77
2021/11/20 00:08:52;;;;;;;10.43;9.57;;;;;;;10.17;93.35;101826.25;5061601;28;20230;-77
2021/11/20 00:11:21;;;;;;;10.83;9.93;;;;;;;10.19;93.80;101836.69;5062612;28;20634;-76
2021/11/20 00:13:49;;;;;;;9.80;8.87;;;;;;;10.16;93.44;101834.94;5061928;28;20223;-76
2021/11/20 00:16:16;;;;;;;9.63;8.17;;;;;;;10.21;92.91;101841.06;5062042;28;20228;-77
2021/11/20 00:18:45;;;;;;;9.60;8.07;;;;;;;10.21;92.85;101861.94;5061833;28;20201;-78
2021/11/20 00:21:19;;;;;;;9.30;8.50;;;;;;;10.24;92.59;101859.31;5061266;28;20205;-77
2021/11/20 00:23:49;;;;;;;8.80;8.00;;;;;;;10.20;92.76;101849.75;5061578;28;20318;-77
2021/11/20 00:26:19;;;;;;;8.37;7.67;;;;;;;10.23;92.63;101847.16;5065694;28;20204;-75
2021/11/20 00:29:07;;;;;;;7.80;7.10;;;;;;;10.24;92.21;101845.41;5065831;28;20213;-77
2021/11/20 00:31:38;;;;;;;8.37;7.70;;;;;;;10.28;91.89;101845.44;5065809;28;20282;-76
2021/11/20 00:34:09;;;;;;;8.10;7.30;;;;;;;10.31;91.78;101863.75;5065077;28;20726;-77
2021/11/20 00:36:35;;;;;;;10.47;7.77;;;;;;;10.34;91.81;101868.13;5065116;28;20594;-77
2021/11/20 00:39:01;;;;;;;9.03;8.30;;;;;;;10.34;91.88;101868.13;5065221;28;20628;-77
2021/11/20 00:41:30;;;;;;;9.73;9.03;;;;;;;10.22;92.11;101854.97;5065431;28;20205;-76
2021/11/20 00:43:57;;;;;;;9.70;8.83;;;;;;;10.24;92.58;101842.81;5065118;28;20281;-77
2021/11/20 00:46:26;;;;;;;9.33;8.53;;;;;;;10.27;92.25;101853.28;5065152;28;20738;-76
2021/11/20 00:48:53;;;;;;;9.03;8.23;;;;;;;10.28;92.08;101853.25;5065652;28;20259;-77
2021/11/20 00:51:24;;;;;;;9.60;8.80;;;;;;;10.23;92.02;101852.38;5065071;28;20262;-77
2021/11/20 00:53:51;;;;;;;10.10;9.17;;;;;;;10.18;92.15;101837.56;5064663;28;20229;-76
2021/11/20 00:56:20;;;;;;;9.30;8.60;;;;;;;10.21;92.47;101824.50;5065186;28;20232;-77
2021/11/20 00:58:46;;;;;;;9.53;8.77;;;;;;;10.16;92.54;101834.94;5064835;28;20247;-77
2021/11/20 01:01:16;;;;;;;11.97;10.43;;;;;;;10.17;92.43;101827.97;5064960;28;20204;-77
2021/11/20 01:03:42;;;;;;;10.37;9.37;;;;;;;10.18;92.62;101820.16;5064801;28;20227;-76
2021/11/20 01:06:09;;;;;;;10.97;10.07;;;;;;;10.21;92.42;101821.91;5065681;28;20898;-77
2021/11/20 01:08:40;;;;;;;10.27;9.20;;;;;;;10.27;92.35;101820.22;5065078;28;20238;-77
2021/11/20 01:11:11;;;;;;;10.47;9.47;;;;;;;10.26;92.05;101838.47;5064857;28;20742;-77
2021/11/20 01:13:37;;;;;;;9.90;8.90;;;;;;;10.28;92.06;101841.97;5064482;28;20224;-77
2021/11/20 01:16:07;;;;;;;10.03;9.00;;;;;;;10.33;91.90;101853.34;5065412;28;20259;-76
2021/11/20 01:18:33;;;;;;;9.90;9.03;;;;;;;10.31;91.83;101853.31;5064770;28;20658;-76
2021/11/20 01:21:01;;;;;;;9.63;8.63;;;;;;;10.27;91.95;101850.66;5064304;28;20213;-75
2021/11/20 01:23:30;;;;;;;9.60;8.70;;;;;;;10.23;92.38;101825.41;5064194;28;20283;-76
2021/11/20 01:25:58;;;;;;;10.23;9.50;;;;;;;10.21;92.43;101816.69;5064660;28;20262;-77
2021/11/20 01:28:28;;;;;;;11.10;10.10;;;;;;;10.22;92.75;101801.03;5065270;28;20310;-77
2021/11/20 01:30:54;;;;;;;9.90;9.10;;;;;;;10.24;92.70;101801.06;5064237;28;20279;-76
2021/11/20 01:33:22;;;;;;;10.20;9.40;;;;;;;10.24;92.71;101795.84;5063644;28;20730;-77
2021/11/20 01:35:48;;;;;;;10.07;9.10;;;;;;;10.27;92.66;101799.34;5063600;28;20228;-76
2021/11/20 01:38:16;;;;;;;12.23;11.23;;;;;;;10.22;92.82;101789.75;5064191;28;20927;-77
2021/11/20 01:40:44;;;;;;;11.07;10.07;;;;;;;10.24;92.82;101777.56;5064299;28;20231;-77
2021/11/20 01:43:12;;;;;;;10.97;10.07;;;;;;;10.24;92.97;101773.22;5064352;28;20233;-77
2021/11/20 01:45:49;;;;;;;11.87;10.77;;;;;;;10.20;92.83;101784.50;5063728;28;20239;-76
2021/11/20 01:48:34;;;;;;;11.00;10.00;;;;;;;10.18;92.84;101781.03;5064345;28;20292;-76
2021/11/20 01:51:05;;;;;;;11.30;10.20;;;;;;;10.22;92.84;101774.09;5063528;28;20213;-76
2021/11/20 01:53:36;;;;;;;16.77;10.07;;;;;;;10.28;92.82;101782.78;5063741;28;20237;-76
2021/11/20 01:56:07;;;;;;;11.77;10.83;;;;;;;10.17;93.19;101773.19;5064574;28;20232;-76
2021/11/20 01:58:42;;;;;;;11.20;10.27;;;;;;;10.14;93.32;101767.09;5063553;28;20262;-75
2021/11/20 02:01:11;;;;;;;12.77;10.73;;;;;;;10.20;93.15;101766.25;5063798;28;20770;-77
2021/11/20 02:03:46;;;;;;;11.37;10.37;;;;;;;10.13;93.22;101767.09;5063551;28;20755;-76
2021/11/20 02:06:19;;;;;;;11.20;10.00;;;;;;;10.17;93.40;101770.56;5064225;28;20200;-76
2021/11/20 02:08:50;;;;;;;12.00;10.90;;;;;;;10.16;93.29;101756.66;5063772;28;20211;-77
2021/11/20 02:11:21;;;;;;;11.53;10.40;;;;;;;10.19;93.42;101759.28;5063623;28;20208;-76
2021/11/20 02:13:50;;;;;;;10.27;9.37;;;;;;;10.25;93.15;101761.06;5063740;28;20290;-76
2021/11/20 02:16:22;;;;;;;11.50;10.53;;;;;;;10.19;93.27;101747.97;5063765;28;20330;-76
2021/11/20 02:18:53;;;;;;;11.00;10.10;;;;;;;10.12;93.45;101750.53;5063300;28;20634;-75
2021/11/20 02:21:24;;;;;;;11.57;10.57;;;;;;;10.18;93.26;101754.06;5062890;28;20205;-76
2021/11/20 02:23:52;;;;;;;11.97;10.97;;;;;;;10.15;93.59;101747.09;5063032;28;20250;-77
2021/11/20 02:26:18;;;;;;;12.33;11.30;;;;;;;10.10;93.60;101740.97;5063447;28;20620;-77
2021/11/20 02:28:47;;;;;;;12.97;11.63;;;;;;;10.14;93.59;101732.28;5063230;28;20215;-77
2021/11/20 02:31:16;;;;;;;11.97;11.07;;;;;;;10.10;93.82;101731.41;5063601;28;20208;-76
2021/11/20 02:33:44;;;;;;;11.87;11.03;;;;;;;10.14;93.79;101719.25;5062746;28;20220;-76
2021/11/20 02:36:14;;;;;;;12.00;10.77;;;;;;;10.17;93.77;101734.03;5062651;28;20233;-77
2021/11/20 02:38:43;;;;;;;11.97;10.77;;;;;;;10.16;93.62;101732.31;5062833;28;20203;-77
2021/11/20 02:41:13;;;;;;;14.07;12.77;;;;;;;10.16;94.30;101711.44;5063599;28;20238;-76
2021/11/20 02:43:42;;;;;;;13.97;12.00;;;;;;;10.08;94.16;101704.44;5062693;28;20225;-76
2021/11/20 02:46:10;;;;;;;11.53;10.63;;;;;;;10.15;94.07;101700.13;5062008;28;20735;-76
2021/11/20 02:48:39;;;;;;;13.30;12.20;;;;;;;10.22;94.04;101714.06;5062241;28;20237;-76
2021/11/20 02:51:09;;;;;;;14.53;13.03;;;;;;;10.12;94.21;101708.81;5062887;28;20212;-77
2021/11/20 02:53:38;;;;;;;14.40;13.00;;;;;;;10.11;94.54;101699.25;5063071;28;20227;-76
2021/11/20 02:56:08;;;;;;;14.47;12.03;;;;;;;10.12;94.58;101684.47;5062402;28;20284;-77
2021/11/20 02:58:34;;;;;;;14.30;13.17;;;;;;;10.12;94.69;101680.09;5063320;28;20282;-76
2021/11/20 03:01:04;;;;;;;13.30;11.97;;;;;;;10.12;94.47;101685.31;5062780;28;20208;-76
2021/11/20 03:03:31;;;;;;;13.77;12.37;;;;;;;10.11;94.47;101682.72;5062739;28;20228;-76
2021/11/20 03:05:59;;;;;;;13.13;11.80;;;;;;;10.13;94.50;101673.16;5062363;28;20675;-76
2021/11/20 03:08:26;;;;;;;14.20;12.80;;;;;;;10.14;94.75;101667.06;5063124;28;20244;-77
2021/11/20 03:10:52;;;;;;;13.17;12.07;;;;;;;10.20;94.42;101669.69;5062690;28;20536;-75
2021/11/20 03:13:20;;;;;;;14.20;13.00;;;;;;;10.11;94.65;101665.34;5062309;28;20260;-77
2021/11/20 03:15:46;;;;;;;13.93;12.60;;;;;;;10.15;94.40;101666.22;5062798;28;20776;-77
2021/11/20 03:18:13;;;;;;;13.43;12.03;;;;;;;10.18;94.17;101673.19;5062789;28;20305;-77
2021/11/20 03:20:41;;;;;;;12.53;11.53;;;;;;;10.23;94.28;101664.50;5063407;28;20232;-76
2021/11/20 03:23:12;;;;;;;13.50;12.17;;;;;;;10.14;94.54;101652.28;5062134;28;20216;-77
2021/11/20 03:25:38;;;;;;;15.47;12.47;;;;;;;10.25;94.47;101654.94;5062134;28;20206;-76
2021/11/20 03:28:05;;;;;;;12.17;11.13;;;;;;;10.15;94.34;101661.00;5062515;28;20206;-76
2021/11/20 03:30:32;;;;;;;13.77;12.37;;;;;;;10.16;94.65;101651.44;5062301;28;20251;-77
2021/11/20 03:32:59;;;;;;;15.73;11.50;;;;;;;10.10;94.84;101636.63;5062365;28;20234;-75
2021/11/20 03:35:26;;;;;;;12.77;11.67;;;;;;;10.21;94.80;101629.69;5062236;28;20240;-77
2021/11/20 03:37:53;;;;;;;12.70;11.47;;;;;;;10.19;94.49;101647.09;5062010;28;20730;-77
2021/11/20 03:40:21;;;;;;;14.63;11.40;;;;;;;10.23;94.39;101650.59;5062681;28;20278;-76
2021/11/20 03:42:47;;;;;;;13.63;11.93;;;;;;;10.18;94.43;101660.13;5062260;28;20277;-76
2021/11/20 03:45:16;;;;;;;12.33;11.10;;;;;;;10.24;94.27;101667.97;5062131;28;20212;-77
2021/11/20 03:47:42;;;;;;;13.03;11.67;;;;;;;10.26;94.08;101669.69;5062136;28;20204;-77
2021/11/20 03:50:13;;;;;;;13.03;11.93;;;;;;;10.21;94.15;101667.94;5062672;28;20521;-77
2021/11/20 03:52:40;;;;;;;12.43;11.50;;;;;;;10.13;94.35;101658.38;5061319;28;20228;-76
2021/11/20 03:55:08;;;;;;;12.30;11.20;;;;;;;10.16;94.39;101648.81;5063051;28;20502;-76
2021/11/20 03:57:36;;;;;;;13.90;11.77;;;;;;;10.18;94.34;101658.38;5062291;28;20224;-77
2021/11/20 04:00:06;;;;;;;11.80;10.90;;;;;;;10.14;94.72;101667.06;5067175;28;20236;-77
2021/11/20 04:02:33;;;;;;;12.00;10.80;;;;;;;10.12;94.69;101659.22;5065484;28;20221;-77
2021/11/20 04:04:59;;;;;;;11.50;10.30;;;;;;;10.14;94.76;101651.41;5065922;28;20212;-76
2021/11/20 04:07:25;;;;;;;11.23;10.13;;;;;;;10.13;94.61;101658.38;5065503;28;20750;-77
2021/11/20 04:09:52;;;;;;;11.67;10.47;;;;;;;10.15;94.41;101663.63;5066244;28;20214;-77
2021/11/20 04:12:19;;;;;;;11.70;10.70;;;;;;;10.11;94.23;101669.69;5065359;28;20220;-76
2021/11/20 04:14:46;;;;;;;12.37;11.07;;;;;;;10.10;94.45;101662.72;5065816;28;20637;-76
2021/11/20 04:17:13;;;;;;;12.73;11.40;;;;;;;10.07;94.71;101652.28;5065971;28;20275;-76
2021/11/20 04:19:40;;;;;;;11.47;10.40;;;;;;;10.14;94.86;101647.06;5065641;28;20266;-77
2021/11/20 04:22:07;;;;;;;11.77;10.77;;;;;;;10.21;94.57;101663.63;5065366;28;20203;-77
2021/11/20 04:24:34;;;;;;;12.47;10.43;;;;;;;10.21;94.00;101671.44;5065813;28;20293;-75
2021/11/20 04:27:01;;;;;;;11.30;10.30;;;;;;;10.11;94.03;101674.91;5066151;28;20219;-77
2021/11/20 04:29:27;;;;;;;12.57;11.47;;;;;;;10.13;94.16;101674.03;5065343;28;20262;-77
2021/11/20 04:31:55;;;;;;;10.83;9.80;;;;;;;10.16;94.06;101672.31;5065408;28;20724;-76
2021/11/20 04:34:21;;;;;;;12.17;10.90;;;;;;;10.04;94.69;101667.91;5065601;28;20641;-77
2021/11/20 04:36:48;;;;;;;11.03;10.07;;;;;;;10.10;94.41;101647.91;5064539;28;20725;-77
2021/11/20 04:39:14;;;;;;;11.33;10.33;;;;;;;10.08;94.44;101644.44;5065489;28;20248;-76
2021/11/20 04:41:41;;;;;;;11.77;10.57;;;;;;;10.07;94.50;101653.16;5065220;28;20220;-76
2021/11/20 04:44:07;;;;;;;12.43;11.33;;;;;;;10.01;94.76;101639.19;5065700;28;20286;-76
2021/11/20 04:46:34;;;;;;;11.67;10.47;;;;;;;10.01;94.52;101645.31;5064605;28;20279;-77
2021/11/20 04:49:01;;;;;;;11.77;10.47;;;;;;;10.07;94.19;101658.38;5065810;28;20206;-77
2021/11/20 04:51:28;;;;;;;11.87;10.67;;;;;;;10.11;94.04;101654.91;5065149;28;20262;-76
2021/11/20 04:53:55;;;;;;;11.83;10.73;;;;;;;10.17;94.04;101650.53;5064761;28;20274;-76
2021/11/20 04:56:24;;;;;;;12.90;11.80;;;;;;;10.23;93.63;101661.03;5065159;28;20208;-76
2021/11/20 04:58:51;;;;;;;13.23;11.93;;;;;;;10.12;93.92;101656.63;5065234;28;20262;-76
2021/11/20 05:01:23;;;;;;;14.20;12.87;;;;;;;10.06;94.75;101638.34;5065074;28;20205;-76
2021/11/20 05:03:53;;;;;;;14.83;13.43;;;;;;;10.06;94.63;101625.31;5064862;28;20224;-76
2021/11/20 05:06:22;;;;;;;16.57;14.33;;;;;;;10.04;94.94;101619.22;5065279;28;20201;-76
2021/11/20 05:08:50;;;;;;;14.80;13.30;;;;;;;10.09;95.07;101612.28;5065241;28;20597;-76
2021/11/20 05:11:17;;;;;;;15.53;13.33;;;;;;;10.10;95.02;101615.75;5064095;28;20213;-76
2021/11/20 05:13:44;;;;;;;15.33;13.93;;;;;;;10.02;95.19;101605.31;5064403;28;20225;-77
2021/11/20 05:16:11;;;;;;;14.97;13.53;;;;;;;10.08;94.93;101610.53;5064730;28;20212;-77
2021/11/20 05:18:37;;;;;;;13.80;12.60;;;;;;;10.06;94.96;101621.84;5065112;28;20251;-76
2021/11/20 05:21:04;;;;;;;18.13;13.57;;;;;;;10.04;94.88;101608.78;5064905;28;20206;-77
2021/11/20 05:23:33;;;;;;;19.67;14.23;;;;;;;10.13;94.93;101606.19;5063772;28;21071;-76
2021/11/20 05:26:00;;;;;;;15.67;14.10;;;;;;;10.16;94.27;101618.38;5064694;28;20547;-78
2021/11/20 05:28:29;;;;;;;15.03;13.83;;;;;;;10.08;94.40;101631.41;5065748;28;20209;-75
2021/11/20 05:30:56;;;;;;;16.87;14.33;;;;;;;10.11;94.38;101620.13;5063951;28;20217;-78
2021/11/20 05:33:25;;;;;;;14.93;13.30;;;;;;;10.16;94.11;101633.16;5066938;28;20485;-78
2021/11/20 05:35:52;;;;;;;16.37;13.53;;;;;;;10.27;93.53;101637.53;5066399;28;20265;-78
2021/11/20 05:38:19;;;;;;;13.33;12.23;;;;;;;10.30;93.34;101658.44;5065458;28;20681;-78
2021/11/20 05:40:47;;;;;;;15.30;13.03;;;;;;;10.30;93.33;101666.25;5066597;28;20216;-78
2021/11/20 05:43:16;;;;;;;15.53;13.90;;;;;;;10.23;93.80;101661.88;5065992;28;20251;-78
2021/11/20 05:45:59;;;;;;;15.13;13.57;;;;;;;10.31;93.70;101649.75;5064632;28;20208;-77
2021/11/20 05:48:25;;;;;;;16.73;14.80;;;;;;;10.20;93.89;101635.78;5064061;28;20262;-78
2021/11/20 05:50:53;;;;;;;17.40;15.73;;;;;;;10.19;94.23;101623.59;5065674;28;20251;-78
2021/11/20 05:53:22;;;;;;;17.90;15.97;;;;;;;10.26;94.05;101619.25;5066567;28;20315;-79
2021/11/20 05:55:52;;;;;;;22.00;16.97;;;;;;;10.11;94.63;101605.31;5065139;28;20287;-77
2021/11/20 05:58:20;;;;;;;18.47;16.83;;;;;;;10.14;94.36;101594.00;5066990;28;20235;-79
2021/11/20 06:00:48;;;;;;;18.43;16.40;;;;;;;10.16;94.80;101597.50;5066958;28;20230;-79
2021/11/20 06:03:17;;;;;;;18.00;16.13;;;;;;;10.17;94.47;101604.47;5065285;28;20225;-78
2021/11/20 06:05:45;;;;;;;18.17;16.67;;;;;;;10.16;94.66;101599.25;5065229;28;20260;-78
2021/11/20 06:08:12;;;;;;;18.33;16.63;;;;;;;10.22;94.24;101601.84;5065318;28;20209;-78
2021/11/20 06:10:40;;;;;;;19.23;17.40;;;;;;;10.25;94.22;101605.34;5064345;28;20635;-78
2021/11/20 06:13:09;;;;;;;19.03;17.20;;;;;;;10.20;94.07;101609.69;5063386;28;20282;-79
2021/11/20 06:15:36;;;;;;;17.90;16.20;;;;;;;10.17;94.76;101598.34;5063594;28;20262;-77
2021/11/20 06:18:02;;;;;;;20.60;17.47;;;;;;;10.10;94.63;101587.91;5064464;28;20313;-78
2021/11/20 06:20:30;;;;;;;18.40;16.67;;;;;;;10.17;94.61;101591.44;5064839;28;20213;-78
2021/11/20 06:22:56;;;;;;;18.53;16.83;;;;;;;10.16;94.52;101596.63;5063789;28;20312;-78
2021/11/20 06:25:22;;;;;;;18.13;16.47;;;;;;;10.24;94.49;101595.75;5064637;28;20208;-77
2021/11/20 06:27:49;;;;;;;18.17;16.37;;;;;;;10.17;94.26;101599.25;5064402;28;20678;-78
2021/11/20 06:30:19;;;;;;;20.90;17.80;;;;;;;10.31;94.27;101604.53;5064328;28;20698;-78
2021/11/20 06:32:48;;;;;;;19.77;18.03;;;;;;;10.23;94.16;101614.91;5064589;28;20873;-78
2021/11/20 06:35:18;;;;;;;19.77;17.83;;;;;;;10.28;93.87;101617.53;5064537;28;20274;-78
2021/11/20 06:37:45;;;;;;;22.00;19.83;;;;;;;10.13;94.25;101607.94;5063825;28;20325;-78
2021/11/20 06:40:16;;;;;;;21.10;18.87;;;;;;;10.28;94.20;101612.31;5063789;28;20205;-78
2021/11/20 06:42:43;;;;;;;21.53;19.33;;;;;;;10.29;94.15;101614.91;5062761;28;20228;-77
2021/11/20 06:45:13;;;;;;;21.10;19.10;;;;;;;10.28;94.02;101610.56;5062366;28;20675;-76
2021/11/20 06:47:41;;;;;;;20.33;18.17;;;;;;;10.28;94.34;101615.78;5063495;28;20293;-77
2021/11/20 06:50:08;;;;;;;21.27;18.50;;;;;;;10.36;93.91;101628.88;5064456;28;20258;-78
2021/11/20 06:52:34;;;;;;;28.13;19.97;;;;;;;10.33;93.76;101629.75;5063083;28;20278;-78
2021/11/20 06:55:01;;;;;;;21.37;19.30;;;;;;;10.34;93.64;101639.31;5063541;28;20204;-78
2021/11/20 06:57:48;;;;;;;22.07;19.83;;;;;;;10.27;94.07;101623.63;5064538;28;20286;-78
2021/11/20 07:00:29;;;;;;;24.13;19.93;;;;;;;10.32;93.99;101632.34;5064750;28;20240;-78
2021/11/20 07:03:09;;;;;;;20.80;18.90;;;;;;;10.38;93.82;101634.97;5063412;28;20225;-77
2021/11/20 07:05:40;;;;;;;20.87;18.97;;;;;;;10.36;93.60;101634.09;5063229;28;20236;-77
2021/11/20 07:08:08;;;;;;;20.87;18.90;;;;;;;10.33;93.68;101632.34;5062840;28;20201;-78
2021/11/20 07:10:34;;;;;;;22.63;20.33;;;;;;;10.30;93.67;101634.94;5063831;28;20703;-77
2021/11/20 07:13:01;;;;;;;22.23;19.90;;;;;;;10.34;93.38;101633.22;5063472;28;20224;-78
2021/11/20 07:15:28;;;;;;;23.83;20.73;;;;;;;10.24;93.28;101640.13;5063635;28;20266;-78
2021/11/20 07:17:56;;;;;;;21.40;19.50;;;;;;;10.34;93.29;101638.44;5064131;28;20228;-78
2021/11/20 07:20:26;;;;;;;21.53;19.63;;;;;;;10.35;93.26;101648.03;5064252;28;20247;-78
2021/11/20 07:22:52;;;;;;;21.87;20.00;;;;;;;10.27;93.41;101634.06;5063347;28;20282;-77
2021/11/20 07:25:19;;;;;;;21.90;19.83;;;;;;;10.24;93.57;101634.91;5063670;28;20209;-77
2021/11/20 07:27:46;;;;;;;21.57;19.47;;;;;;;10.25;93.50;101631.44;5063411;28;20243;-77
2021/11/20 07:30:16;;;;;;;21.97;19.90;;;;;;;10.23;93.79;101630.56;5063596;28;20261;-78
2021/11/20 07:32:42;;;;;;;21.93;19.93;;;;;;;10.23;93.40;101632.31;5063074;28;20220;-78
2021/11/20 07:35:10;;;;;;;22.23;19.97;;;;;;;10.28;93.57;101633.19;5063427;28;20230;-78
2021/11/20 07:37:38;;;;;;;22.23;20.30;;;;;;;10.27;93.80;101624.50;5063712;28;20226;-77
2021/11/20 07:40:05;;;;;;;22.37;20.37;;;;;;;10.22;93.50;101626.19;5063268;28;20208;-78
2021/11/20 07:42:32;;;;;;;23.13;20.97;;;;;;;10.24;nan;101619.25;5062150;28;20651;-77
2021/11/20 07:45:02;;;;;;;21.63;19.73;;;;;;;10.22;93.61;101618.38;5062763;28;20587;-78
2021/11/20 07:47:28;;;;;;;22.87;19.77;;;;;;;10.18;93.83;101615.78;5063771;28;20638;-77
2021/11/20 07:49:55;;;;;;;22.60;20.47;;;;;;;10.27;93.56;101610.56;5063025;28;20701;-77
2021/11/20 07:52:21;;;;;;;24.33;22.13;;;;;;;10.10;94.00;101607.94;5062466;28;20213;-78
2021/11/20 07:54:49;;;;;;;23.03;20.97;;;;;;;10.22;93.79;101594.03;5062694;28;20245;-77
2021/11/20 07:57:16;;;;;;;21.93;19.93;;;;;;;10.16;93.78;101601.84;5063364;28;20200;-77
2021/11/20 07:59:42;;;;;;;22.37;20.37;;;;;;;10.14;93.84;101594.00;5062876;28;20224;-79
2021/11/20 08:02:09;;;;;;;21.83;19.73;;;;;;;10.17;93.42;101596.66;5062615;28;20215;-76
2021/11/20 08:04:38;;;;;;;24.07;21.60;;;;;;;10.11;93.80;101594.03;5062919;28;20200;-78
2021/11/20 08:07:05;;;;;;;22.63;20.40;;;;;;;10.14;93.68;101589.66;5063980;28;20211;-78
2021/11/20 08:09:31;;;;;;;23.87;21.37;;;;;;;10.10;93.64;101589.66;5062596;28;20201;-79
2021/11/20 08:12:00;;;;;;;23.90;21.63;;;;;;;10.16;93.38;101587.06;5062665;28;20262;-77
2021/11/20 08:14:26;;;;;;;24.30;21.70;;;;;;;10.14;93.59;101583.56;5062317;28;20299;-77
2021/11/20 08:16:53;;;;;;;24.47;21.73;;;;;;;10.25;93.53;101591.44;5062213;28;20237;-77
2021/11/20 08:19:19;;;;;;;23.60;21.20;;;;;;;10.28;93.18;101602.72;5061595;28;20220;-77
2021/11/20 08:21:46;;;;;;;23.40;21.27;;;;;;;10.25;93.04;101607.97;5061346;28;20677;-77
2021/11/20 08:24:14;;;;;;;25.67;22.17;;;;;;;10.19;93.15;101599.22;5061571;28;20637;-78
2021/11/20 08:26:43;;;;;;;23.47;21.13;;;;;;;10.15;93.11;101595.78;5062337;28;20288;-77
2021/11/20 08:29:13;;;;;;;22.93;21.13;;;;;;;10.19;93.28;101592.31;5062739;28;20219;-77
2021/11/20 08:31:44;;;;;;;24.70;22.30;;;;;;;10.18;93.01;101598.38;5061644;28;20208;-76
2021/11/20 08:34:11;;;;;;;22.27;20.33;;;;;;;10.30;92.88;101595.81;5062020;28;20236;-77
2021/11/20 08:36:38;;;;;;;23.67;21.63;;;;;;;10.38;92.87;101601.03;5061792;28;20232;-77
2021/11/20 08:39:06;;;;;;;27.73;21.20;;;;;;;10.40;92.28;101614.94;5062064;28;20285;-77
2021/11/20 08:41:33;;;;;;;22.43;20.27;;;;;;;10.36;92.42;101620.19;5062082;28;20261;-77
2021/11/20 08:43:59;;;;;;;24.87;21.93;;;;;;;10.32;92.75;101607.09;5061531;28;20285;-77
2021/11/20 08:46:27;;;;;;;21.50;19.67;;;;;;;10.40;92.54;101619.31;5063759;28;20274;-77
2021/11/20 08:48:54;;;;;;;24.07;21.80;;;;;;;10.39;92.31;101621.06;5065232;28;20200;-77
2021/11/20 08:51:22;;;;;;;23.37;21.13;;;;;;;10.44;91.96;101629.75;5066099;28;20208;-76
2021/11/20 08:53:51;;;;;;;23.47;21.33;;;;;;;10.40;91.73;101634.97;5065413;28;20228;-77
2021/11/20 08:56:19;;;;;;;23.17;21.07;;;;;;;10.46;91.81;101633.22;5065449;28;20205;-77
2021/11/20 08:58:45;;;;;;;23.70;21.57;;;;;;;10.41;91.75;101634.97;5064769;28;20906;-77
2021/11/20 09:01:14;;;;;;;24.33;21.93;;;;;;;10.39;91.56;101638.47;5065249;28;20238;-77
2021/11/20 09:03:49;;;;;;;22.80;20.83;;;;;;;10.45;91.71;101635.84;5064619;28;20818;-76
2021/11/20 09:06:19;;;;;;;22.03;20.03;;;;;;;10.46;91.09;101641.06;5064934;28;20239;-77
2021/11/20 09:08:53;;;;;;;21.33;19.43;;;;;;;10.53;90.85;101655.00;5065037;28;20818;-77
2021/11/20 09:11:27;;;;;;;23.20;21.30;;;;;;;10.61;90.71;101647.19;5064791;28;20205;-77
2021/11/20 09:13:56;;;;;;;22.43;20.20;;;;;;;10.55;90.48;101649.78;5064819;28;20714;-78
2021/11/20 09:16:25;;;;;;;22.37;20.43;;;;;;;10.53;90.41;101658.47;5064559;28;21180;-77
2021/11/20 09:18:54;;;;;;;22.10;20.30;;;;;;;10.62;90.18;101654.13;5064278;28;20235;-77
2021/11/20 09:21:21;;;;;;;20.47;18.83;;;;;;;10.59;89.25;101681.13;5064397;28;20209;-76
2021/11/20 09:23:49;;;;;;;20.63;19.03;;;;;;;10.65;89.60;101681.13;5063968;28;20718;-77
2021/11/20 09:26:17;;;;;;;22.70;20.90;;;;;;;10.60;89.97;101669.78;5064275;28;20213;-77
2021/11/20 09:28:44;;;;;;;20.27;18.43;;;;;;;10.62;89.39;101681.09;5064656;28;20683;-76
2021/11/20 09:31:11;;;;;;;22.50;20.43;;;;;;;10.55;88.87;101692.44;5064449;28;20209;-76
2021/11/20 09:33:39;;;;;;;24.63;20.87;;;;;;;10.65;90.33;101641.09;5064474;28;20321;-76
2021/11/20 09:36:08;;;;;;;23.33;20.53;;;;;;;10.79;90.56;101615.81;5064083;28;20224;-77
2021/11/20 09:38:35;;;;;;;20.97;19.27;;;;;;;10.77;88.48;101664.59;5064360;28;20244;-77
2021/11/20 09:41:05;;;;;;;22.37;20.23;;;;;;;10.77;88.11;101703.75;5064715;28;20205;-76
2021/11/20 09:43:34;;;;;;;29.20;22.27;;;;;;;10.59;87.50;101733.34;5063734;28;20314;-77
2021/11/20 09:46:06;;;;;;;22.60;20.50;;;;;;;10.65;88.07;101712.44;5063728;28;20224;-77
2021/11/20 09:48:35;;;;;;;23.77;21.33;;;;;;;10.70;87.94;101720.28;5061668;28;20243;-77
2021/11/20 09:51:07;;;;;;;25.13;22.73;;;;;;;10.77;87.99;101721.19;5063578;28;20280;-76
2021/11/20 09:53:35;;;;;;;25.70;23.33;;;;;;;10.90;88.67;101695.06;5063324;28;20216;-76
2021/11/20 09:56:05;;;;;;;24.17;22.07;;;;;;;10.82;87.56;101729.88;5063811;28;20287;-77
2021/11/20 09:58:34;;;;;;;23.63;21.63;;;;;;;10.78;87.23;101739.44;5064493;28;20294;-76
2021/11/20 10:01:23;;;;;;;23.63;21.43;;;;;;;10.81;86.56;101743.81;5063995;28;20217;-77
2021/11/20 10:03:53;;;;;;;22.90;20.93;;;;;;;10.64;86.29;101762.06;5063592;28;20220;-76
2021/11/20 10:06:29;;;;;;;22.43;20.43;;;;;;;10.63;87.31;101734.22;5063942;28;20274;-76
2021/11/20 10:09:10;;;;;;;22.97;20.93;;;;;;;10.57;87.35;101724.63;5063878;28;20670;-77
2021/11/20 10:11:41;;;;;;;22.43;20.53;;;;;;;10.65;87.33;101724.66;5063824;28;21023;-76
2021/11/20 10:14:11;;;;;;;21.47;19.47;;;;;;;10.65;86.52;101746.41;5063829;28;20240;-77
2021/11/20 10:16:44;;;;;;;22.80;20.63;;;;;;;10.66;85.98;101757.72;5063989;28;20216;-77
2021/11/20 10:19:22;;;;;;;21.80;20.00;;;;;;;10.60;85.95;101761.16;5063690;28;20267;-77
2021/11/20 10:22:00;;;;;;;22.07;19.93;;;;;;;10.73;86.54;101721.16;5064696;28;20232;-78
2021/11/20 10:24:52;;;;;;;21.27;19.67;;;;;;;10.81;85.78;101749.03;5064741;28;20686;-78
2021/11/20 10:27:42;;;;;;;21.23;19.30;;;;;;;10.91;85.73;101751.66;5063810;28;20209;-77
2021/11/20 10:30:23;;;;;;;20.10;18.30;;;;;;;10.82;85.40;101769.03;5063278;28;20263;-77
2021/11/20 10:32:53;;;;;;;17.90;16.17;;;;;;;10.65;84.40;101797.75;5063230;28;20236;-77
2021/11/20 10:35:26;;;;;;;16.47;15.07;;;;;;;10.71;84.32;101792.56;5062295;28;20245;-77
2021/11/20 10:37:56;;;;;;;18.67;17.07;;;;;;;10.73;84.73;101781.22;5062570;28;20199;-78
2021/11/20 10:40:30;;;;;;;20.00;18.20;;;;;;;10.66;84.05;101792.53;5062305;28;20259;-77
2021/11/20 10:43:01;;;;;;;19.33;17.70;;;;;;;10.58;84.07;101796.84;5062670;28;20243;-79
2021/11/20 10:45:36;;;;;;;19.00;17.27;;;;;;;10.58;84.50;101790.75;5063300;28;20208;-77
2021/11/20 10:48:10;;;;;;;18.17;16.40;;;;;;;10.69;84.87;101763.81;4371279;28;10000582;-77
2021/11/20 10:50:40;;;;;;;15.10;13.90;;;;;;;10.57;83.33;101817.75;5070758;28;20259;-76
2021/11/20 10:53:20;;;;;;;16.83;15.43;;;;;;;10.55;83.38;101807.31;5075084;28;20775;-77
2021/11/20 10:56:05;;;;;;;15.97;14.67;;;;;;;10.63;83.39;101794.28;5072037;28;20626;-77
2021/11/20 10:58:51;;;;;;;14.03;12.90;;;;;;;10.54;83.34;101808.16;5079652;28;20243;-77
2021/11/20 11:01:56;;;;;;;15.97;14.43;;;;;;;10.61;83.15;101806.47;5075458;28;20229;-76
2021/11/20 11:04:49;;;;;;;15.50;14.20;;;;;;;10.61;82.86;101809.94;5037292;28;20710;-77
2021/11/20 11:07:19;;;;;;;16.03;14.73;;;;;;;10.56;82.75;101806.41;5067247;28;20229;-77
2021/11/20 11:09:49;;;;;;;14.83;13.27;;;;;;;10.57;82.89;101789.91;5076293;28;20217;-76
2021/11/20 11:12:30;;;;;;;12.67;11.73;;;;;;;10.65;82.82;101788.19;5078350;28;20196;-76
2021/11/20 11:15:05;;;;;;;13.70;12.50;;;;;;;10.67;82.50;101804.72;5079879;28;20204;-76
2021/11/20 11:18:02;;;;;;;15.73;14.43;;;;;;;10.55;81.81;101806.44;5073530;28;20682;-77
2021/11/20 11:21:04;;;;;;;15.07;13.77;;;;;;;10.56;82.29;101792.50;5077863;28;20255;-76
2021/11/20 11:23:39;;;;;;;14.03;12.93;;;;;;;10.60;83.11;101762.91;5074809;28;20302;-75